Time;durP1;ratioP1;P1;durP2;ratioP2;P2;SDS_P1;SDS_P2;PMS_P1;PMS_P2;Temp;Humidity;BMP_temperature;BMP_pressure;BME280_temperature;BME280_humidity;BME280_pressure;Samples;Min_cycle;Max_cycle;Signal;HPM_P1;HPM_P2
2023/12/14 00:00:16;;;;;;;22.67;18.50;;;;;;;4.87;100.00;100748.59;1019676;29;20782;-58
2023/12/14 00:00:48;;;;;;;26.90;18.30;;;;;;;4.83;100.00;100742.03;1019755;29;20393;-58
2023/12/14 00:01:20;;;;;;;22.40;18.35;;;;;;;4.86;100.00;100747.75;1019467;29;20338;-58
2023/12/14 00:01:56;;;;;;;20.65;17.15;;;;;;;4.83;100.00;100747.31;1019445;29;20445;-58
2023/12/14 00:02:27;;;;;;;22.35;17.20;;;;;;;4.82;100.00;100743.03;1019537;29;20311;-58
2023/12/14 00:02:59;;;;;;;23.60;17.05;;;;;;;4.85;100.00;100751.41;1019126;29;20303;-58
2023/12/14 00:03:30;;;;;;;23.88;18.55;;;;;;;4.85;100.00;100750.59;1019898;29;20848;-58
2023/12/14 00:04:04;;;;;;;25.08;18.27;;;;;;;4.88;100.00;100751.03;1019445;29;21612;-58
2023/12/14 00:04:36;;;;;;;23.83;17.70;;;;;;;4.89;100.00;100754.50;1019404;29;20353;-58
2023/12/14 00:05:08;;;;;;;21.90;17.83;;;;;;;4.89;100.00;100757.13;1019375;29;20322;-58
2023/12/14 00:05:40;;;;;;;22.90;18.20;;;;;;;4.85;100.00;100756.69;1019972;29;20343;-58
2023/12/14 00:06:12;;;;;;;22.73;17.35;;;;;;;4.87;100.00;100759.13;1019894;29;20516;-57
2023/12/14 00:06:44;;;;;;;24.13;17.63;;;;;;;4.83;100.00;100757.88;1019593;29;20310;-58
2023/12/14 00:07:16;;;;;;;23.52;18.13;;;;;;;4.87;100.00;100759.97;1019281;29;20310;-58
2023/12/14 00:07:47;;;;;;;22.23;17.45;;;;;;;4.83;100.00;100763.16;1019462;29;20314;-58
2023/12/14 00:08:19;;;;;;;24.23;18.77;;;;;;;4.84;100.00;100764.78;1019653;29;20318;-58
2023/12/14 00:08:51;;;;;;;24.33;18.13;;;;;;;4.82;100.00;100759.69;1019444;29;20314;-58
2023/12/14 00:09:22;;;;;;;25.73;18.77;;;;;;;4.85;100.00;100763.78;1020135;29;20769;-58
2023/12/14 00:09:54;;;;;;;24.98;17.98;;;;;;;4.86;100.00;100760.13;1019815;29;20667;-58
2023/12/14 00:10:25;;;;;;;21.85;17.80;;;;;;;4.85;100.00;100766.41;1018896;29;20295;-58
2023/12/14 00:10:57;;;;;;;24.75;17.83;;;;;;;4.82;100.00;100767.59;1019530;29;20306;-58
2023/12/14 00:11:28;;;;;;;27.95;20.17;;;;;;;4.83;100.00;100763.16;1019253;29;20303;-58
2023/12/14 00:12:00;;;;;;;24.92;18.90;;;;;;;4.78;100.00;100770.78;1019411;29;20318;-57
2023/12/14 00:12:32;;;;;;;25.60;18.27;;;;;;;4.77;100.00;100769.16;1019580;29;20790;-58
2023/12/14 00:13:04;;;;;;;23.45;18.90;;;;;;;4.81;100.00;100770.41;1019386;29;20310;-58
2023/12/14 00:13:36;;;;;;;23.27;18.45;;;;;;;4.83;100.00;100776.34;1021571;29;20945;-58
2023/12/14 00:14:08;;;;;;;25.15;19.20;;;;;;;4.87;100.00;100775.78;1019332;28;20390;-58
2023/12/14 00:14:39;;;;;;;23.98;19.20;;;;;;;4.87;100.00;100774.97;1019457;29;20295;-58
2023/12/14 00:15:11;;;;;;;25.35;20.08;;;;;;;4.86;100.00;100770.69;1018991;29;20398;-59
2023/12/14 00:15:44;;;;;;;23.35;19.33;;;;;;;4.88;100.00;100777.44;1017230;29;20670;-58
2023/12/14 00:16:16;;;;;;;24.58;17.77;;;;;;;4.90;100.00;100774.59;1016563;29;21116;-58
2023/12/14 00:16:49;;;;;;;26.70;19.48;;;;;;;4.90;100.00;100777.25;1019160;29;20299;-58
2023/12/14 00:17:20;;;;;;;25.60;18.63;;;;;;;4.89;100.00;100781.72;1017192;29;20966;-56
2023/12/14 00:17:52;;;;;;;23.90;18.90;;;;;;;4.89;100.00;100780.88;1016895;29;20288;-58
2023/12/14 00:18:23;;;;;;;26.27;18.92;;;;;;;4.90;100.00;100782.53;1019653;29;20365;-58
2023/12/14 00:18:55;;;;;;;25.65;20.05;;;;;;;4.91;100.00;100782.34;1019462;29;20639;-58
2023/12/14 00:19:26;;;;;;;24.95;18.83;;;;;;;4.87;100.00;100780.25;1019325;29;20315;-58
2023/12/14 00:19:58;;;;;;;28.98;20.92;;;;;;;4.87;100.00;100774.97;1019551;29;20314;-57
2023/12/14 00:20:30;;;;;;;27.50;20.30;;;;;;;4.86;100.00;100779.44;1019612;29;20302;-58
2023/12/14 00:21:02;;;;;;;24.23;19.08;;;;;;;4.90;100.00;100779.88;1019712;29;20300;-58
2023/12/14 00:21:33;;;;;;;29.98;20.13;;;;;;;4.91;100.00;100786.81;1019719;29;20291;-59
2023/12/14 00:22:05;;;;;;;25.95;18.95;;;;;;;4.89;100.00;100788.81;1019553;29;20639;-58
2023/12/14 00:22:37;;;;;;;24.10;19.45;;;;;;;4.91;100.00;100787.63;1019313;29;20307;-58
2023/12/14 00:23:09;;;;;;;25.65;18.63;;;;;;;4.85;100.00;100785.72;1018499;29;20303;-58
2023/12/14 00:23:41;;;;;;;25.45;19.92;;;;;;;4.85;100.00;100784.88;1021325;29;20391;-58
2023/12/14 00:24:12;;;;;;;25.17;19.80;;;;;;;4.85;100.00;100795.44;1019438;29;20339;-58
2023/12/14 00:24:44;;;;;;;26.48;20.25;;;;;;;4.87;100.00;100801.38;1019291;29;20299;-58
2023/12/14 00:25:15;;;;;;;25.65;19.95;;;;;;;4.86;100.00;100799.72;1019524;29;20291;-58
2023/12/14 00:25:47;;;;;;;25.77;18.45;;;;;;;4.88;100.00;100797.72;1019474;29;20386;-58
2023/12/14 00:26:19;;;;;;;25.77;19.83;;;;;;;4.91;100.00;100792.09;1019290;29;20746;-56
2023/12/14 00:26:51;;;;;;;25.52;18.98;;;;;;;4.89;100.00;100794.09;1019377;29;20314;-59
2023/12/14 00:27:22;;;;;;;26.95;21.40;;;;;;;4.91;100.00;100792.09;1019484;29;20790;-58
2023/12/14 00:27:54;;;;;;;24.95;18.98;;;;;;;4.92;100.00;100796.38;1019173;29;20971;-59
2023/12/14 00:28:25;;;;;;;28.80;20.58;;;;;;;4.91;100.00;100797.38;1019252;29;20299;-58
2023/12/14 00:29:01;;;;;;;25.08;18.02;;;;;;;4.85;100.00;100801.53;1019432;29;20393;-58
2023/12/14 00:29:33;;;;;;;26.65;19.05;;;;;;;4.81;100.00;100807.38;1019471;29;20302;-59
2023/12/14 00:30:05;;;;;;;23.90;18.63;;;;;;;4.80;100.00;100800.44;1019793;29;20299;-59
2023/12/14 00:30:37;;;;;;;24.98;19.48;;;;;;;4.75;100.00;100802.81;1019422;29;20307;-58
2023/12/14 00:31:09;;;;;;;27.52;20.52;;;;;;;4.73;100.00;100807.44;1019355;29;20295;-59
2023/12/14 00:31:40;;;;;;;26.52;21.13;;;;;;;4.75;100.00;100802.81;1019247;29;20311;-58
2023/12/14 00:32:12;;;;;;;27.15;19.05;;;;;;;4.78;100.00;100799.81;1019356;29;20717;-58
2023/12/14 00:32:43;;;;;;;28.33;20.58;;;;;;;4.74;100.00;100798.53;1019547;29;20302;-58
2023/12/14 00:33:15;;;;;;;24.15;19.80;;;;;;;4.70;100.00;100810.44;1019208;29;20303;-58
2023/12/14 00:33:47;;;;;;;28.40;21.45;;;;;;;4.68;100.00;100807.16;1020679;29;20332;-58
2023/12/14 00:34:18;;;;;;;25.58;20.23;;;;;;;4.67;100.00;100806.34;1019269;29;20778;-58
2023/12/14 00:34:50;;;;;;;27.02;22.02;;;;;;;4.70;100.00;100807.81;1019046;29;20339;-58
2023/12/14 00:35:21;;;;;;;30.95;20.95;;;;;;;4.73;100.00;100821.47;1019164;29;20378;-58
2023/12/14 00:35:53;;;;;;;27.65;20.67;;;;;;;4.75;100.00;100818.66;1019434;29;20299;-58
2023/12/14 00:36:25;;;;;;;29.90;21.13;;;;;;;4.74;100.00;100814.38;1019581;29;20292;-58
2023/12/14 00:36:56;;;;;;;26.52;20.88;;;;;;;4.77;100.00;100816.66;1019597;29;20307;-58
2023/12/14 00:37:28;;;;;;;27.40;19.90;;;;;;;4.78;100.00;100815.66;1019492;29;20639;-58
2023/12/14 00:38:00;;;;;;;26.85;19.80;;;;;;;4.79;100.00;100825.19;1019235;29;20382;-58
2023/12/14 00:38:32;;;;;;;27.00;20.83;;;;;;;4.82;100.00;100830.13;1019160;29;20318;-59
2023/12/14 00:39:04;;;;;;;27.23;20.35;;;;;;;4.82;100.00;100827.47;1019039;29;20303;-58
2023/12/14 00:39:35;;;;;;;25.95;19.27;;;;;;;4.82;100.00;100824.84;1018858;29;20505;-58
2023/12/14 00:40:07;;;;;;;24.30;20.38;;;;;;;4.84;100.00;100825.47;1019500;29;20307;-57
2023/12/14 00:40:39;;;;;;;26.88;19.80;;;;;;;4.74;100.00;100822.28;1019269;29;20310;-58
2023/12/14 00:41:10;;;;;;;29.30;21.15;;;;;;;4.74;100.00;100828.38;1019513;29;20683;-58
2023/12/14 00:41:42;;;;;;;24.55;18.02;;;;;;;4.70;100.00;100828.91;1017474;29;20387;-58
2023/12/14 00:42:14;;;;;;;24.95;19.65;;;;;;;4.72;100.00;100825.09;1019574;29;20299;-58
2023/12/14 00:42:45;;;;;;;26.75;20.70;;;;;;;4.73;100.00;100825.91;1019373;29;20310;-58
2023/12/14 00:43:17;;;;;;;27.30;20.70;;;;;;;4.75;100.00;100829.19;1018904;29;20322;-58
2023/12/14 00:43:48;;;;;;;28.15;20.55;;;;;;;4.77;100.00;100821.91;1019735;29;20402;-58
2023/12/14 00:44:20;;;;;;;26.00;18.52;;;;;;;4.76;100.00;100830.84;1018973;29;20340;-58
2023/12/14 00:44:52;;;;;;;26.92;20.10;;;;;;;4.78;100.00;100829.66;1019576;29;20793;-58
2023/12/14 00:45:23;;;;;;;25.10;20.30;;;;;;;4.79;100.00;100827.84;1019027;29;20663;-58
2023/12/14 00:45:55;;;;;;;26.55;20.35;;;;;;;4.78;100.00;100829.66;1019513;29;20662;-58
2023/12/14 00:46:27;;;;;;;28.08;20.13;;;;;;;4.80;100.00;100824.19;1019333;29;20315;-58
2023/12/14 00:47:00;;;;;;;25.48;20.27;;;;;;;4.78;100.00;100826.19;1019166;29;21001;-58
2023/12/14 00:47:31;;;;;;;26.95;21.77;;;;;;;4.74;100.00;100832.84;1019221;29;20371;-59
2023/12/14 00:48:03;;;;;;;25.45;20.02;;;;;;;4.72;100.00;100829.56;1018157;29;20307;-58
2023/12/14 00:48:35;;;;;;;20.75;18.27;;;;;;;4.71;100.00;100827.91;1019311;29;20318;-57
2023/12/14 00:49:07;;;;;;;25.00;19.30;;;;;;;4.71;100.00;100830.56;1019619;29;20770;-59
2023/12/14 00:49:39;;;;;;;26.10;19.20;;;;;;;4.71;100.00;100839.28;1018847;29;20305;-58
2023/12/14 00:50:10;;;;;;;23.13;18.65;;;;;;;4.71;100.00;100827.91;1019503;29;20386;-58
2023/12/14 00:50:42;;;;;;;25.40;20.25;;;;;;;4.76;100.00;100830.84;1019417;29;20311;-58
2023/12/14 00:51:14;;;;;;;29.40;20.45;;;;;;;4.77;100.00;100835.13;1019103;29;21029;-58
2023/12/14 00:51:45;;;;;;;27.20;19.60;;;;;;;4.75;100.00;100835.28;1019486;29;20417;-58
2023/12/14 00:52:17;;;;;;;25.35;19.85;;;;;;;4.71;100.00;100836.66;1019530;29;20299;-58
2023/12/14 00:52:48;;;;;;;24.40;18.52;;;;;;;4.70;100.00;100827.09;1017715;29;20296;-58
2023/12/14 00:53:20;;;;;;;23.08;18.75;;;;;;;4.67;100.00;100835.38;1018580;29;20313;-58
2023/12/14 00:53:51;;;;;;;22.33;18.10;;;;;;;4.67;100.00;100838.00;1021609;29;20299;-59
2023/12/14 00:54:23;;;;;;;29.13;19.17;;;;;;;4.69;100.00;100838.66;1019128;29;20303;-58
2023/12/14 00:54:54;;;;;;;25.48;17.90;;;;;;;4.65;100.00;100840.78;1019004;29;20299;-58
2023/12/14 00:55:26;;;;;;;23.15;18.58;;;;;;;4.70;100.00;100840.28;1019291;29;20315;-58
2023/12/14 00:55:58;;;;;;;24.05;18.42;;;;;;;4.69;100.00;100836.00;1019684;29;20306;-58
2023/12/14 00:56:29;;;;;;;22.98;18.92;;;;;;;4.72;100.00;100840.13;1017569;29;20288;-58
2023/12/14 00:57:01;;;;;;;24.60;18.77;;;;;;;4.71;100.00;100841.94;1019233;29;20365;-58
2023/12/14 00:57:32;;;;;;;22.88;17.10;;;;;;;4.71;100.00;100843.75;1019362;29;20757;-58
2023/12/14 00:58:04;;;;;;;21.95;17.52;;;;;;;4.65;100.00;100840.78;1019458;29;20662;-58
2023/12/14 00:58:35;;;;;;;23.98;18.08;;;;;;;4.70;100.00;100850.03;1019327;29;20310;-58
2023/12/14 00:59:07;;;;;;;23.77;18.92;;;;;;;4.68;100.00;100846.75;1019102;29;20314;-59
2023/12/14 00:59:40;;;;;;;22.23;18.08;;;;;;;4.68;100.00;100849.38;1021318;29;20836;-58
2023/12/14 01:00:12;;;;;;;25.77;19.15;;;;;;;4.68;100.00;100849.38;1021138;29;20310;-58
2023/12/14 01:00:44;;;;;;;23.40;18.58;;;;;;;4.67;100.00;100848.56;1023247;29;20795;-58
2023/12/14 01:01:16;;;;;;;20.67;17.35;;;;;;;4.71;100.00;100851.66;1021502;29;20318;-58
2023/12/14 01:01:47;;;;;;;25.15;19.88;;;;;;;4.72;100.00;100853.31;1018725;29;20352;-58
2023/12/14 01:02:19;;;;;;;23.02;17.65;;;;;;;4.70;100.00;100863.22;1019165;29;20439;-58
2023/12/14 01:02:50;;;;;;;23.55;19.08;;;;;;;4.71;100.00;100855.13;1019396;29;20397;-58
2023/12/14 01:03:22;;;;;;;25.75;19.20;;;;;;;4.72;100.00;100866.50;1019428;29;20750;-58
2023/12/14 01:03:54;;;;;;;24.52;17.95;;;;;;;4.72;100.00;100862.03;1021083;29;20761;-57
2023/12/14 01:04:25;;;;;;;24.60;18.20;;;;;;;4.62;100.00;100862.25;1017481;29;20300;-57
2023/12/14 01:04:57;;;;;;;26.70;18.73;;;;;;;4.61;100.00;100871.16;1019149;29;20314;-58
2023/12/14 01:05:30;;;;;;;23.10;17.42;;;;;;;4.61;100.00;100863.25;1019307;29;20310;-58
2023/12/14 01:06:02;;;;;;;22.20;18.15;;;;;;;4.65;100.00;100866.34;1018795;29;20314;-58
2023/12/14 01:06:34;;;;;;;25.27;17.83;;;;;;;4.68;100.00;100875.75;1019333;29;20447;-58
2023/12/14 01:07:05;;;;;;;21.27;17.67;;;;;;;4.65;100.00;100867.19;1019188;29;20299;-58
2023/12/14 01:07:37;;;;;;;24.02;19.95;;;;;;;4.67;100.00;100868.84;1019554;29;20300;-58
2023/12/14 01:08:09;;;;;;;22.00;18.65;;;;;;;4.69;100.00;100877.41;1017521;29;20300;-58
2023/12/14 01:08:41;;;;;;;23.58;17.20;;;;;;;4.64;100.00;100868.19;1019308;29;20318;-58
2023/12/14 01:09:13;;;;;;;21.58;17.92;;;;;;;4.64;100.00;100870.81;1018705;29;20314;-58
2023/12/14 01:09:45;;;;;;;24.83;18.02;;;;;;;4.63;100.00;100877.09;1018473;29;20299;-58
2023/12/14 01:10:16;;;;;;;23.73;19.30;;;;;;;4.64;100.00;100868.19;1019102;29;20382;-58
2023/12/14 01:10:48;;;;;;;21.08;17.15;;;;;;;4.63;100.00;100871.81;1019227;29;20319;-58
2023/12/14 01:11:19;;;;;;;27.55;19.50;;;;;;;4.65;100.00;100876.91;1019202;29;20683;-58
2023/12/14 01:11:51;;;;;;;21.90;17.00;;;;;;;4.62;100.00;100878.09;1023325;29;20298;-58
2023/12/14 01:12:23;;;;;;;24.98;17.77;;;;;;;4.61;100.00;100871.16;1023185;29;20354;-58
2023/12/14 01:12:54;;;;;;;22.67;17.75;;;;;;;4.61;100.00;100868.53;1022891;29;20299;-58
2023/12/14 01:13:26;;;;;;;22.42;17.95;;;;;;;4.62;100.00;100875.44;1019577;29;20801;-57
2023/12/14 01:13:58;;;;;;;21.67;17.92;;;;;;;4.60;100.00;100877.44;1020367;28;20653;-58
2023/12/14 01:14:29;;;;;;;26.23;18.35;;;;;;;4.56;100.00;100872.69;1019013;29;20451;-58
2023/12/14 01:15:01;;;;;;;24.95;17.80;;;;;;;4.55;100.00;100873.69;1019210;29;20402;-58
2023/12/14 01:15:32;;;;;;;23.77;17.92;;;;;;;4.53;100.00;100875.69;1019375;29;20385;-58
2023/12/14 01:16:04;;;;;;;22.20;17.85;;;;;;;4.52;100.00;100871.41;1019404;29;20351;-58
2023/12/14 01:16:36;;;;;;;26.85;18.05;;;;;;;4.48;100.00;100878.88;1019368;29;20658;-58
2023/12/14 01:17:07;;;;;;;25.40;18.17;;;;;;;4.49;100.00;100877.88;1018861;29;20366;-58
2023/12/14 01:17:39;;;;;;;23.38;18.73;;;;;;;4.47;100.00;100876.41;1019172;29;20666;-58
2023/12/14 01:18:11;;;;;;;23.13;19.20;;;;;;;4.51;100.00;100877.69;1019459;29;20357;-58
2023/12/14 01:18:43;;;;;;;22.08;17.73;;;;;;;4.47;100.00;100882.50;1019489;29;20303;-58
2023/12/14 01:19:14;;;;;;;23.40;19.17;;;;;;;4.46;100.00;100883.50;1018396;29;20334;-56
2023/12/14 01:19:46;;;;;;;23.73;19.77;;;;;;;4.48;100.00;100889.41;1019265;29;20746;-58
2023/12/14 01:20:17;;;;;;;21.88;17.83;;;;;;;4.49;100.00;100888.41;1018558;29;20869;-58
2023/12/14 01:20:49;;;;;;;21.75;17.73;;;;;;;4.54;100.00;100888.72;1018918;29;20589;-58
2023/12/14 01:21:21;;;;;;;27.27;18.67;;;;;;;4.53;100.00;100894.97;1019097;29;20308;-58
2023/12/14 01:21:52;;;;;;;28.00;19.27;;;;;;;4.53;100.00;100894.16;1018910;29;20920;-58
2023/12/14 01:22:24;;;;;;;22.65;17.48;;;;;;;4.50;100.00;100897.16;1019000;29;20307;-58
2023/12/14 01:22:55;;;;;;;25.42;18.48;;;;;;;4.49;100.00;100893.69;1015311;29;20731;-58
2023/12/14 01:23:27;;;;;;;24.45;18.83;;;;;;;4.43;100.00;100899.66;1019631;29;20299;-59
2023/12/14 01:24:00;;;;;;;27.30;17.95;;;;;;;4.42;100.00;100898.03;1019212;29;20303;-58
2023/12/14 01:24:32;;;;;;;22.65;17.15;;;;;;;4.45;100.00;100899.50;1019258;29;20318;-58
2023/12/14 01:25:03;;;;;;;21.48;17.13;;;;;;;4.46;100.00;100898.50;1018844;29;20311;-58
2023/12/14 01:25:36;;;;;;;23.52;18.52;;;;;;;4.48;100.00;100897.31;1019157;29;20318;-58
2023/12/14 01:26:07;;;;;;;22.25;17.30;;;;;;;4.50;100.00;100902.44;1019342;29;20689;-59
2023/12/14 01:26:39;;;;;;;21.45;16.55;;;;;;;4.41;100.00;100901.66;1019092;29;20307;-58
2023/12/14 01:27:13;;;;;;;23.73;18.17;;;;;;;4.43;100.00;100897.03;1016622;29;20292;-57
2023/12/14 01:27:45;;;;;;;20.77;16.55;;;;;;;4.44;100.00;100906.59;1019249;29;20299;-58
2023/12/14 01:28:16;;;;;;;22.20;18.10;;;;;;;4.45;100.00;100902.97;1018931;29;20307;-58
2023/12/14 01:28:48;;;;;;;20.17;16.85;;;;;;;4.39;100.00;100906.28;1019037;29;20782;-58
2023/12/14 01:29:20;;;;;;;23.15;17.17;;;;;;;4.42;100.00;100900.66;1019104;29;20312;-58
2023/12/14 01:29:51;;;;;;;23.02;18.92;;;;;;;4.43;100.00;100904.94;1019418;29;20313;-58
2023/12/14 01:30:23;;;;;;;23.67;16.80;;;;;;;4.44;100.00;100903.94;1019248;29;20307;-58
2023/12/14 01:30:56;;;;;;;22.98;17.05;;;;;;;4.46;100.00;100906.41;1019104;29;20299;-58
2023/12/14 01:31:29;;;;;;;19.23;15.63;;;;;;;4.47;100.00;100908.06;1019583;29;20295;-58
2023/12/14 01:32:00;;;;;;;20.15;15.75;;;;;;;4.46;100.00;100915.16;1019309;29;20299;-58
2023/12/14 01:32:32;;;;;;;23.80;18.58;;;;;;;4.51;100.00;100917.25;1019431;29;20382;-58
2023/12/14 01:33:04;;;;;;;23.08;18.23;;;;;;;4.50;100.00;100910.34;1018495;29;20841;-58
2023/12/14 01:33:36;;;;;;;21.40;16.92;;;;;;;4.47;100.00;100915.97;1019930;29;20309;-58
2023/12/14 01:34:10;;;;;;;21.58;18.60;;;;;;;4.51;100.00;100907.53;1019270;29;20311;-59
2023/12/14 01:34:41;;;;;;;21.88;18.05;;;;;;;4.52;100.00;100913.63;1017407;29;20307;-58
2023/12/14 01:35:13;;;;;;;23.30;17.77;;;;;;;4.48;100.00;100907.88;1014806;29;20320;-58
2023/12/14 01:35:45;;;;;;;23.55;16.42;;;;;;;4.50;100.00;100913.78;1012762;29;20312;-58
2023/12/14 01:36:24;;;;;;;19.50;17.13;;;;;;;4.46;100.00;100916.97;1015888;29;20296;-58
2023/12/14 01:36:56;;;;;;;23.30;16.38;;;;;;;4.49;100.00;100916.59;1018945;29;20299;-58
2023/12/14 01:37:27;;;;;;;20.40;16.65;;;;;;;4.51;100.00;100914.63;1018722;29;20303;-57
2023/12/14 01:37:59;;;;;;;21.00;16.42;;;;;;;4.49;100.00;100913.97;1019532;29;20397;-57
2023/12/14 01:38:31;;;;;;;28.73;19.08;;;;;;;4.47;100.00;100916.78;1019676;29;20327;-58
2023/12/14 01:39:02;;;;;;;22.63;16.75;;;;;;;4.46;100.00;100915.16;1018912;29;20806;-58
2023/12/14 01:39:34;;;;;;;19.60;16.30;;;;;;;4.46;100.00;100917.78;1019230;29;20612;-58
2023/12/14 01:40:06;;;;;;;21.85;17.20;;;;;;;4.46;100.00;100915.16;1019191;29;20310;-58
2023/12/14 01:40:37;;;;;;;20.50;15.32;;;;;;;4.51;100.00;100923.34;1019234;29;20333;-58
2023/12/14 01:41:09;;;;;;;23.25;16.50;;;;;;;4.53;100.00;100916.09;1018935;29;20299;-57
2023/12/14 01:41:41;;;;;;;19.05;15.77;;;;;;;4.50;100.00;100918.25;1019497;29;20307;-58
2023/12/14 01:42:13;;;;;;;23.70;16.13;;;;;;;4.51;100.00;100920.72;1017353;29;20307;-58
2023/12/14 01:42:45;;;;;;;18.05;14.68;;;;;;;4.53;100.00;100916.09;1018659;29;20307;-58
2023/12/14 01:43:16;;;;;;;21.13;15.77;;;;;;;4.54;100.00;100923.00;1018763;29;20315;-58
2023/12/14 01:43:48;;;;;;;17.83;14.73;;;;;;;4.52;100.00;100924.16;1019562;29;20816;-58
2023/12/14 01:44:20;;;;;;;17.90;15.20;;;;;;;4.51;100.00;100922.53;1019126;29;20625;-58
2023/12/14 01:44:52;;;;;;;19.17;15.50;;;;;;;4.53;100.00;100924.00;1018779;29;20786;-57
2023/12/14 01:45:23;;;;;;;17.70;14.90;;;;;;;4.54;100.00;100920.34;1019360;29;20666;-57
2023/12/14 01:45:55;;;;;;;19.17;15.75;;;;;;;4.54;100.00;100917.72;1017664;29;20336;-58
2023/12/14 01:46:26;;;;;;;18.73;15.55;;;;;;;4.57;100.00;100922.66;1018869;29;20306;-58
2023/12/14 01:46:58;;;;;;;19.05;15.73;;;;;;;4.55;100.00;100926.47;1018466;29;20307;-58
2023/12/14 01:47:30;;;;;;;19.42;15.65;;;;;;;4.52;100.00;100930.28;1018743;29;20431;-58
2023/12/14 01:48:01;;;;;;;17.15;15.15;;;;;;;4.55;100.00;100927.28;1018613;29;20318;-58
2023/12/14 01:48:33;;;;;;;20.35;15.90;;;;;;;4.56;100.00;100926.28;1017591;29;20439;-58
2023/12/14 01:49:05;;;;;;;16.48;14.63;;;;;;;4.56;100.00;100926.28;1018839;29;20327;-58
2023/12/14 01:49:37;;;;;;;17.88;15.77;;;;;;;4.56;100.00;100930.75;1017530;29;20300;-58
2023/12/14 01:50:09;;;;;;;19.30;16.02;;;;;;;4.57;100.00;100930.56;1019179;29;20360;-58
2023/12/14 01:50:41;;;;;;;17.40;13.93;;;;;;;4.57;100.00;100933.19;1019119;29;20312;-58
2023/12/14 01:51:12;;;;;;;17.90;15.45;;;;;;;4.57;100.00;100935.84;1019000;29;20299;-59
2023/12/14 01:51:44;;;;;;;19.00;14.38;;;;;;;4.56;100.00;100939.47;1019306;29;20652;-58
2023/12/14 01:52:15;;;;;;;17.02;14.10;;;;;;;4.58;100.00;100937.47;1017946;29;20339;-57
2023/12/14 01:52:47;;;;;;;17.23;14.35;;;;;;;4.57;100.00;100938.47;1018903;29;20331;-58
2023/12/14 01:53:19;;;;;;;17.15;14.55;;;;;;;4.61;100.00;100939.75;1019543;29;20312;-58
2023/12/14 01:53:50;;;;;;;15.88;13.23;;;;;;;4.62;100.00;100938.75;1020590;29;20397;-58
2023/12/14 01:54:22;;;;;;;17.58;14.40;;;;;;;4.58;100.00;100942.75;1018700;29;20663;-58
2023/12/14 01:54:55;;;;;;;16.52;14.07;;;;;;;4.59;100.00;100941.75;1018446;29;20315;-58
2023/12/14 01:55:27;;;;;;;16.85;14.25;;;;;;;4.60;100.00;100951.31;1018723;29;20302;-58
2023/12/14 01:55:58;;;;;;;16.73;14.43;;;;;;;4.61;100.00;100944.22;1019085;29;20315;-57
2023/12/14 01:56:30;;;;;;;17.08;14.77;;;;;;;4.61;100.00;100950.31;1019223;29;20306;-58
2023/12/14 01:57:02;;;;;;;16.77;14.05;;;;;;;4.60;100.00;100946.03;1019139;29;20307;-58
2023/12/14 01:57:34;;;;;;;17.58;14.90;;;;;;;4.64;100.00;100946.50;1019080;29;20347;-58
2023/12/14 01:58:05;;;;;;;17.92;14.70;;;;;;;4.64;100.00;100944.69;1018326;29;20303;-58
2023/12/14 01:58:37;;;;;;;17.58;14.43;;;;;;;4.67;100.00;100953.28;1018654;29;20307;-58
2023/12/14 01:59:09;;;;;;;15.88;13.90;;;;;;;4.65;100.00;100950.78;1018939;29;20299;-58
2023/12/14 01:59:40;;;;;;;18.20;14.27;;;;;;;4.63;100.00;100950.97;1019114;29;20314;-58
2023/12/14 02:00:19;;;;;;;18.05;13.77;;;;;;;4.60;100.00;100958.41;1019263;29;20825;-58
2023/12/14 02:01:03;;;;;;;17.60;14.07;;;;;;;4.57;100.00;100959.56;1019017;29;20295;-58
2023/12/14 02:01:37;;;;;;;16.95;13.32;;;;;;;4.58;100.00;100955.94;1019559;29;20296;-58
2023/12/14 02:02:09;;;;;;;17.38;13.05;;;;;;;4.60;100.00;100959.22;1019428;29;20342;-58
2023/12/14 02:02:41;;;;;;;17.50;14.20;;;;;;;4.61;100.00;100955.59;1017488;29;20300;-58
2023/12/14 02:03:12;;;;;;;16.58;13.35;;;;;;;4.60;100.00;100956.59;1018545;29;20313;-58
2023/12/14 02:03:54;;;;;;;17.30;13.98;;;;;;;4.59;100.00;100965.50;1020017;29;20303;-58
2023/12/14 02:04:26;;;;;;;17.13;13.75;;;;;;;4.59;100.00;100962.84;1019204;29;20299;-58
2023/12/14 02:04:57;;;;;;;16.30;13.38;;;;;;;4.58;100.00;100960.41;1019111;29;20306;-58
2023/12/14 02:05:29;;;;;;;19.17;14.50;;;;;;;4.58;100.00;100955.13;1019038;29;20683;-58
2023/12/14 02:06:01;;;;;;;20.15;15.95;;;;;;;4.60;100.00;100959.22;1018995;29;20299;-58
2023/12/14 02:06:33;;;;;;;19.02;15.48;;;;;;;4.60;100.00;100953.94;1019047;29;20327;-58
2023/12/14 02:07:04;;;;;;;17.05;14.43;;;;;;;4.61;100.00;100955.59;1018876;29;20459;-58
2023/12/14 02:07:36;;;;;;;20.25;15.68;;;;;;;4.57;100.00;100954.31;1019035;29;20311;-58
2023/12/14 02:08:08;;;;;;;17.55;14.07;;;;;;;4.56;100.00;100963.22;1019043;29;20374;-58
2023/12/14 02:08:40;;;;;;;15.80;13.80;;;;;;;4.58;100.00;100965.66;1019687;29;20299;-58
2023/12/14 02:09:11;;;;;;;15.82;13.18;;;;;;;4.62;100.00;100957.22;1016986;29;20779;-58
2023/12/14 02:09:43;;;;;;;17.27;14.85;;;;;;;4.64;100.00;100968.44;1019019;29;20670;-58
2023/12/14 02:10:14;;;;;;;20.42;14.75;;;;;;;4.64;100.00;100965.78;1018890;29;20394;-58
2023/12/14 02:10:48;;;;;;;18.30;14.38;;;;;;;4.59;100.00;100968.13;1019094;29;20307;-58
2023/12/14 02:11:19;;;;;;;19.33;15.57;;;;;;;4.61;100.00;100971.41;1018964;29;20299;-58
2023/12/14 02:11:51;;;;;;;17.77;15.35;;;;;;;4.61;100.00;100971.41;1019196;29;20865;-58
2023/12/14 02:12:23;;;;;;;18.35;14.85;;;;;;;4.61;100.00;100970.59;1018647;29;20307;-58
2023/12/14 02:12:55;;;;;;;19.00;15.55;;;;;;;4.62;100.00;100977.50;1019263;29;20291;-58
2023/12/14 02:13:27;;;;;;;17.42;13.60;;;;;;;4.62;100.00;100975.69;1019407;28;20385;-56
2023/12/14 02:14:04;;;;;;;17.45;14.07;;;;;;;4.63;100.00;100974.69;1018967;29;20809;-57
2023/12/14 02:14:35;;;;;;;18.60;15.00;;;;;;;4.59;100.00;100977.88;1017302;29;20326;-57
2023/12/14 02:15:08;;;;;;;16.52;14.73;;;;;;;4.58;100.00;100973.59;1018962;29;20311;-58
2023/12/14 02:15:41;;;;;;;19.55;14.48;;;;;;;4.58;100.00;100971.78;1019038;29;20671;-58
2023/12/14 02:16:13;;;;;;;16.42;13.18;;;;;;;4.61;100.00;100975.88;1018746;29;20316;-57
2023/12/14 02:16:44;;;;;;;18.75;13.90;;;;;;;4.63;100.00;100974.69;1017826;29;20305;-58
2023/12/14 02:17:16;;;;;;;17.52;14.30;;;;;;;4.64;100.00;100976.34;1014642;29;20300;-57
2023/12/14 02:17:48;;;;;;;17.25;14.40;;;;;;;4.64;100.00;100976.34;1015595;29;20640;-58
2023/12/14 02:18:19;;;;;;;16.38;13.70;;;;;;;4.66;100.00;100968.28;1019537;29;20306;-58
2023/12/14 02:18:51;;;;;;;16.10;14.38;;;;;;;4.61;100.00;100971.41;1019557;29;20328;-58
2023/12/14 02:19:23;;;;;;;16.63;14.20;;;;;;;4.58;100.00;100966.50;1019132;29;20698;-58
2023/12/14 02:19:55;;;;;;;16.90;14.00;;;;;;;4.57;100.00;100975.41;1018985;29;20365;-58
2023/12/14 02:20:26;;;;;;;20.17;14.63;;;;;;;4.55;100.00;100974.75;1019215;29;20375;-58
2023/12/14 02:20:58;;;;;;;17.25;13.10;;;;;;;4.53;100.00;100968.84;1018960;29;20821;-58
2023/12/14 02:21:30;;;;;;;15.73;13.75;;;;;;;4.53;100.00;100975.94;1018366;29;20292;-58
2023/12/14 02:22:01;;;;;;;18.65;13.63;;;;;;;4.51;100.00;100984.00;1019188;29;20385;-57
2023/12/14 02:22:52;;;;;;;18.08;13.50;;;;;;;4.50;100.00;100979.72;1017319;29;20300;-57
2023/12/14 02:23:24;;;;;;;16.30;12.90;;;;;;;4.53;100.00;100984.66;1019235;29;20760;-58
2023/12/14 02:23:56;;;;;;;16.65;14.32;;;;;;;4.55;100.00;100974.75;1019162;29;20036;-58
2023/12/14 02:24:27;;;;;;;16.67;12.98;;;;;;;4.56;100.00;100984.31;1017574;29;20398;-58
2023/12/14 02:24:59;;;;;;;16.02;13.18;;;;;;;4.54;100.00;100980.22;1018493;29;20432;-58
2023/12/14 02:25:31;;;;;;;16.02;12.88;;;;;;;4.51;100.00;100986.66;1018673;29;20318;-57